Antelope, Kansas
Current Conditions -  °F | °C
As of 1:15 AM on Thursday 18 Dec 2014 (Local Time) from KEWK Reporting Station
Overcast Overcast  
Wind Chill: 20°   Ceiling: 500
Heat Index: 28°   Visibility: 2mi
Dew Point: 23°   Wind: 8mph
Humidity: 80%   Direction: 100°E
Pressure: 30.15"   Gusts: NA
Location:  38.4689°N, 96.9315°W
Report Text: KEWK 180715Z AUTO 10007KT 2SM BKN005 OVC014 M02/M05 A3015 RMK AO1
Loading
Personal Weather Stations






























Interactive Weather Map New forecast layout! Learn more

10-Day Weather Forecast

Advertisements
Track Severe Weather on mobile